<?xml version="1.0" encoding="UTF-8" standalone="no" ?>
<gpx xmlns="http://www.topografix.com/GPX/1/1" xmlns:xsi="http://www.w3.org/2001/XMLSchema-instance" xsi:schemaLocation="http://www.topografix.com/GPX/1/1 http://www.topografix.com/GPX/1/1/gpx.xsd" version="1.1" creator="VisuGPX - https://www.visugpx.com">
  <metadata>
    <name>Argentina</name>
    <desc><![CDATA[Downloaded from eMap Software Version 2.75]]></desc>
  </metadata>
  <trk>
    <name><![CDATA[Argentina_125]]></name>
    <extensions>
      <line xmlns="http://www.topografix.com/GPX/gpx_style/0/2">
        <color>ff0000</color>
        <opacity>0.78</opacity>
        <width>0.6000</width>
      </line>
    </extensions>
    <trkseg>
      <trkpt lat="43.60879" lon="6.94907">
        <ele>140.489868</ele>
        <time>2009-08-22T10:30:43Z</time>
      </trkpt>
      <trkpt lat="43.60845" lon="6.94935">
        <ele>140.489868</ele>
        <time>2009-08-22T10:31:09Z</time>
      </trkpt>
      <trkpt lat="43.60864" lon="6.94868">
        <ele>132.799316</ele>
        <time>2009-08-22T10:31:20Z</time>
      </trkpt>
      <trkpt lat="43.60858" lon="6.94866">
        <ele>121.744141</ele>
        <time>2009-08-22T10:31:31Z</time>
      </trkpt>
      <trkpt lat="43.60847" lon="6.94868">
        <ele>120.302124</ele>
        <time>2009-08-22T10:31:42Z</time>
      </trkpt>
      <trkpt lat="43.6083" lon="6.94877">
        <ele>121.26355</ele>
        <time>2009-08-22T10:32:07Z</time>
      </trkpt>
      <trkpt lat="43.6083" lon="6.94875">
        <ele>123.666748</ele>
        <time>2009-08-22T10:32:10Z</time>
      </trkpt>
      <trkpt lat="43.60817" lon="6.94857">
        <ele>126.069946</ele>
        <time>2009-08-22T10:32:28Z</time>
      </trkpt>
      <trkpt lat="43.60806" lon="6.94797">
        <ele>128.954102</ele>
        <time>2009-08-22T10:33:10Z</time>
      </trkpt>
      <trkpt lat="43.60808" lon="6.94799">
        <ele>131.3573</ele>
        <time>2009-08-22T10:33:21Z</time>
      </trkpt>
      <trkpt lat="43.60834" lon="6.94827">
        <ele>132.318604</ele>
        <time>2009-08-22T10:33:50Z</time>
      </trkpt>
      <trkpt lat="43.60834" lon="6.9483">
        <ele>132.318604</ele>
        <time>2009-08-22T10:33:51Z</time>
      </trkpt>
      <trkpt lat="43.60832" lon="6.94836">
        <ele>133.279907</ele>
        <time>2009-08-22T10:33:58Z</time>
      </trkpt>
      <trkpt lat="43.6083" lon="6.9483">
        <ele>136.16394</ele>
        <time>2009-08-22T10:34:08Z</time>
      </trkpt>
      <trkpt lat="43.60828" lon="6.94845">
        <ele>137.125244</ele>
        <time>2009-08-22T10:34:23Z</time>
      </trkpt>
      <trkpt lat="43.60791" lon="6.9484">
        <ele>138.086548</ele>
        <time>2009-08-22T10:34:51Z</time>
      </trkpt>
      <trkpt lat="43.60789" lon="6.9484">
        <ele>137.605835</ele>
        <time>2009-08-22T10:34:52Z</time>
      </trkpt>
      <trkpt lat="43.60748" lon="6.94838">
        <ele>138.567261</ele>
        <time>2009-08-22T10:35:23Z</time>
      </trkpt>
      <trkpt lat="43.60708" lon="6.94802">
        <ele>139.528442</ele>
        <time>2009-08-22T10:36:06Z</time>
      </trkpt>
    </trkseg>
  </trk>
</gpx>